sensor_id;sensor_type;location;lat;lon;timestamp;temperature;humidity
9658;DHT22;4867;48.112;11.622;2023-11-19T00:00:08;5.50;99.90
9658;DHT22;4867;48.112;11.622;2023-11-19T00:02:39;5.40;99.90
9658;DHT22;4867;48.112;11.622;2023-11-19T00:05:07;5.50;99.90
9658;DHT22;4867;48.112;11.622;2023-11-19T00:07:36;5.50;99.90
9658;DHT22;4867;48.112;11.622;2023-11-19T00:10:04;5.50;99.90
9658;DHT22;4867;48.112;11.622;2023-11-19T00:12:34;5.50;99.90
9658;DHT22;4867;48.112;11.622;2023-11-19T00:15:01;5.50;99.90
9658;DHT22;4867;48.112;11.622;2023-11-19T00:17:28;5.50;99.90
9658;DHT22;4867;48.112;11.622;2023-11-19T00:19:56;5.50;99.90
9658;DHT22;4867;48.112;11.622;2023-11-19T00:22:23;5.50;99.90
9658;DHT22;4867;48.112;11.622;2023-11-19T00:24:51;5.50;99.90
9658;DHT22;4867;48.112;11.622;2023-11-19T00:27:18;5.50;99.90
9658;DHT22;4867;48.112;11.622;2023-11-19T00:29:45;5.50;99.90
9658;DHT22;4867;48.112;11.622;2023-11-19T00:32:13;5.50;99.90
9658;DHT22;4867;48.112;11.622;2023-11-19T00:34:40;5.50;99.90
9658;DHT22;4867;48.112;11.622;2023-11-19T00:37:08;5.50;99.90
9658;DHT22;4867;48.112;11.622;2023-11-19T00:39:36;5.50;99.90
9658;DHT22;4867;48.112;11.622;2023-11-19T00:42:03;5.50;99.90
9658;DHT22;4867;48.112;11.622;2023-11-19T00:44:31;5.60;99.90
9658;DHT22;4867;48.112;11.622;2023-11-19T00:46:58;5.60;99.90
9658;DHT22;4867;48.112;11.622;2023-11-19T00:49:27;5.70;99.90
9658;DHT22;4867;48.112;11.622;2023-11-19T00:51:54;5.70;99.90
9658;DHT22;4867;48.112;11.622;2023-11-19T00:54:21;5.70;99.90
9658;DHT22;4867;48.112;11.622;2023-11-19T00:56:52;5.80;99.90
9658;DHT22;4867;48.112;11.622;2023-11-19T00:59:21;5.80;99.90
9658;DHT22;4867;48.112;11.622;2023-11-19T01:01:48;5.90;99.90
9658;DHT22;4867;48.112;11.622;2023-11-19T01:04:16;5.90;99.90
9658;DHT22;4867;48.112;11.622;2023-11-19T01:06:43;5.90;99.90
9658;DHT22;4867;48.112;11.622;2023-11-19T01:09:13;5.80;99.90
9658;DHT22;4867;48.112;11.622;2023-11-19T01:11:42;5.90;99.90
9658;DHT22;4867;48.112;11.622;2023-11-19T01:14:09;5.90;99.90
9658;DHT22;4867;48.112;11.622;2023-11-19T01:16:36;5.90;99.90
9658;DHT22;4867;48.112;11.622;2023-11-19T01:19:03;6.00;99.90
9658;DHT22;4867;48.112;11.622;2023-11-19T01:21:43;6.10;99.90
9658;DHT22;4867;48.112;11.622;2023-11-19T01:24:11;6.10;99.90
9658;DHT22;4867;48.112;11.622;2023-11-19T01:26:40;6.10;99.90
9658;DHT22;4867;48.112;11.622;2023-11-19T01:29:15;6.10;99.90
9658;DHT22;4867;48.112;11.622;2023-11-19T01:31:43;6.10;99.90
9658;DHT22;4867;48.112;11.622;2023-11-19T01:34:12;6.10;99.90
9658;DHT22;4867;48.112;11.622;2023-11-19T01:36:40;6.10;99.90
9658;DHT22;4867;48.112;11.622;2023-11-19T01:39:07;6.10;99.90
9658;DHT22;4867;48.112;11.622;2023-11-19T01:41:35;6.10;99.90
9658;DHT22;4867;48.112;11.622;2023-11-19T01:44:06;6.10;99.90
9658;DHT22;4867;48.112;11.622;2023-11-19T01:46:34;6.20;99.90
9658;DHT22;4867;48.112;11.622;2023-11-19T01:49:03;6.20;99.90
9658;DHT22;4867;48.112;11.622;2023-11-19T01:51:32;6.20;99.90
9658;DHT22;4867;48.112;11.622;2023-11-19T01:54:00;6.20;99.90
9658;DHT22;4867;48.112;11.622;2023-11-19T01:56:29;6.30;99.90
9658;DHT22;4867;48.112;11.622;2023-11-19T01:58:57;6.30;99.90
9658;DHT22;4867;48.112;11.622;2023-11-19T02:01:25;6.30;99.90
9658;DHT22;4867;48.112;11.622;2023-11-19T02:03:53;6.40;99.90
9658;DHT22;4867;48.112;11.622;2023-11-19T02:06:20;6.40;99.90
9658;DHT22;4867;48.112;11.622;2023-11-19T02:08:50;6.40;99.90
9658;DHT22;4867;48.112;11.622;2023-11-19T02:11:17;6.40;99.90
9658;DHT22;4867;48.112;11.622;2023-11-19T02:13:44;6.40;99.90
9658;DHT22;4867;48.112;11.622;2023-11-19T02:16:12;6.50;99.90
9658;DHT22;4867;48.112;11.622;2023-11-19T02:18:39;6.50;99.90
9658;DHT22;4867;48.112;11.622;2023-11-19T02:21:06;6.60;99.90
9658;DHT22;4867;48.112;11.622;2023-11-19T02:23:34;6.60;99.90
9658;DHT22;4867;48.112;11.622;2023-11-19T02:28:36;6.60;99.90
9658;DHT22;4867;48.112;11.622;2023-11-19T02:31:04;6.70;99.90
9658;DHT22;4867;48.112;11.622;2023-11-19T02:33:38;6.60;99.90
9658;DHT22;4867;48.112;11.622;2023-11-19T02:36:06;6.70;99.90
9658;DHT22;4867;48.112;11.622;2023-11-19T02:38:35;6.70;99.90
9658;DHT22;4867;48.112;11.622;2023-11-19T02:41:03;6.70;99.90
9658;DHT22;4867;48.112;11.622;2023-11-19T02:43:37;6.80;99.90
9658;DHT22;4867;48.112;11.622;2023-11-19T02:46:05;6.80;99.90
9658;DHT22;4867;48.112;11.622;2023-11-19T02:48:38;6.80;99.90
9658;DHT22;4867;48.112;11.622;2023-11-19T02:51:06;6.90;99.90
9658;DHT22;4867;48.112;11.622;2023-11-19T02:53:38;7.00;99.90
9658;DHT22;4867;48.112;11.622;2023-11-19T02:56:07;7.00;99.90
9658;DHT22;4867;48.112;11.622;2023-11-19T02:58:47;7.10;99.90
9658;DHT22;4867;48.112;11.622;2023-11-19T03:01:22;7.10;99.90
9658;DHT22;4867;48.112;11.622;2023-11-19T03:04:01;7.20;99.90
9658;DHT22;4867;48.112;11.622;2023-11-19T03:06:30;7.30;99.90
9658;DHT22;4867;48.112;11.622;2023-11-19T03:08:59;7.40;99.90
9658;DHT22;4867;48.112;11.622;2023-11-19T03:11:30;7.40;99.90
9658;DHT22;4867;48.112;11.622;2023-11-19T03:13:57;7.50;99.90
9658;DHT22;4867;48.112;11.622;2023-11-19T03:16:25;7.40;99.90
9658;DHT22;4867;48.112;11.622;2023-11-19T03:18:52;7.50;99.90
9658;DHT22;4867;48.112;11.622;2023-11-19T03:21:26;7.50;99.90
9658;DHT22;4867;48.112;11.622;2023-11-19T03:23:54;7.60;99.90
9658;DHT22;4867;48.112;11.622;2023-11-19T03:26:21;7.50;99.90
9658;DHT22;4867;48.112;11.622;2023-11-19T03:28:49;7.50;99.90
9658;DHT22;4867;48.112;11.622;2023-11-19T03:31:16;7.60;99.90
9658;DHT22;4867;48.112;11.622;2023-11-19T03:33:44;7.60;99.90
9658;DHT22;4867;48.112;11.622;2023-11-19T03:36:12;7.70;99.90
9658;DHT22;4867;48.112;11.622;2023-11-19T03:38:40;7.70;99.90
9658;DHT22;4867;48.112;11.622;2023-11-19T03:41:13;7.70;99.90
9658;DHT22;4867;48.112;11.622;2023-11-19T03:43:41;7.80;99.90
9658;DHT22;4867;48.112;11.622;2023-11-19T03:46:21;7.80;99.90
9658;DHT22;4867;48.112;11.622;2023-11-19T03:48:49;7.80;99.90
9658;DHT22;4867;48.112;11.622;2023-11-19T03:51:17;7.80;99.90
9658;DHT22;4867;48.112;11.622;2023-11-19T03:53:45;7.90;99.90
9658;DHT22;4867;48.112;11.622;2023-11-19T03:56:13;7.90;99.90
9658;DHT22;4867;48.112;11.622;2023-11-19T03:58:40;8.00;99.90
9658;DHT22;4867;48.112;11.622;2023-11-19T04:01:11;8.00;99.90
9658;DHT22;4867;48.112;11.622;2023-11-19T04:03:42;8.00;99.90
9658;DHT22;4867;48.112;11.622;2023-11-19T04:06:12;8.00;99.90
9658;DHT22;4867;48.112;11.622;2023-11-19T04:08:39;8.10;99.90
9658;DHT22;4867;48.112;11.622;2023-11-19T04:11:07;8.10;99.90
9658;DHT22;4867;48.112;11.622;2023-11-19T04:13:35;8.10;99.90
9658;DHT22;4867;48.112;11.622;2023-11-19T04:16:03;8.10;99.90
9658;DHT22;4867;48.112;11.622;2023-11-19T04:18:31;8.10;99.90
9658;DHT22;4867;48.112;11.622;2023-11-19T04:20:59;8.20;99.90
9658;DHT22;4867;48.112;11.622;2023-11-19T04:23:26;8.10;99.90
9658;DHT22;4867;48.112;11.622;2023-11-19T04:25:53;8.20;99.90
9658;DHT22;4867;48.112;11.622;2023-11-19T04:28:20;8.30;99.90
9658;DHT22;4867;48.112;11.622;2023-11-19T04:30:48;8.20;99.90
9658;DHT22;4867;48.112;11.622;2023-11-19T04:33:15;8.30;99.90
9658;DHT22;4867;48.112;11.622;2023-11-19T04:35:42;8.40;99.90
9658;DHT22;4867;48.112;11.622;2023-11-19T04:38:10;8.40;99.90
9658;DHT22;4867;48.112;11.622;2023-11-19T04:40:37;8.40;99.90
9658;DHT22;4867;48.112;11.622;2023-11-19T04:43:04;8.40;99.90
9658;DHT22;4867;48.112;11.622;2023-11-19T04:45:32;8.40;99.90
9658;DHT22;4867;48.112;11.622;2023-11-19T04:47:59;8.50;99.90
9658;DHT22;4867;48.112;11.622;2023-11-19T04:50:27;8.50;99.90
9658;DHT22;4867;48.112;11.622;2023-11-19T04:52:54;8.50;99.90
9658;DHT22;4867;48.112;11.622;2023-11-19T04:55:26;8.60;99.90
9658;DHT22;4867;48.112;11.622;2023-11-19T04:57:54;8.60;99.90
9658;DHT22;4867;48.112;11.622;2023-11-19T05:00:21;8.70;99.90
9658;DHT22;4867;48.112;11.622;2023-11-19T05:02:50;8.80;99.90
9658;DHT22;4867;48.112;11.622;2023-11-19T05:05:17;8.90;99.90
9658;DHT22;4867;48.112;11.622;2023-11-19T05:07:45;9.00;99.90
9658;DHT22;4867;48.112;11.622;2023-11-19T05:10:13;9.20;99.90
9658;DHT22;4867;48.112;11.622;2023-11-19T05:12:40;9.20;99.90
9658;DHT22;4867;48.112;11.622;2023-11-19T05:15:08;9.30;99.90
9658;DHT22;4867;48.112;11.622;2023-11-19T05:17:36;9.40;99.90
9658;DHT22;4867;48.112;11.622;2023-11-19T05:20:05;9.50;99.90
9658;DHT22;4867;48.112;11.622;2023-11-19T05:22:41;9.60;99.90
9658;DHT22;4867;48.112;11.622;2023-11-19T05:25:08;9.60;99.90
9658;DHT22;4867;48.112;11.622;2023-11-19T05:27:37;9.70;99.90
9658;DHT22;4867;48.112;11.622;2023-11-19T05:30:05;9.60;99.90
9658;DHT22;4867;48.112;11.622;2023-11-19T05:32:34;9.70;99.90
9658;DHT22;4867;48.112;11.622;2023-11-19T05:35:02;9.80;99.90
9658;DHT22;4867;48.112;11.622;2023-11-19T05:37:29;9.80;99.90
9658;DHT22;4867;48.112;11.622;2023-11-19T05:39:57;9.80;99.90
9658;DHT22;4867;48.112;11.622;2023-11-19T05:42:24;9.80;99.90
9658;DHT22;4867;48.112;11.622;2023-11-19T05:44:51;9.80;99.90
9658;DHT22;4867;48.112;11.622;2023-11-19T05:47:19;9.90;99.90
9658;DHT22;4867;48.112;11.622;2023-11-19T05:49:47;10.00;99.90
9658;DHT22;4867;48.112;11.622;2023-11-19T05:52:14;9.90;99.90
9658;DHT22;4867;48.112;11.622;2023-11-19T05:54:41;9.80;99.90
9658;DHT22;4867;48.112;11.622;2023-11-19T05:57:09;10.00;99.90
9658;DHT22;4867;48.112;11.622;2023-11-19T05:59:36;10.00;99.90
9658;DHT22;4867;48.112;11.622;2023-11-19T06:02:04;9.90;99.90
9658;DHT22;4867;48.112;11.622;2023-11-19T06:04:31;9.90;99.90
9658;DHT22;4867;48.112;11.622;2023-11-19T06:06:58;9.90;99.90
9658;DHT22;4867;48.112;11.622;2023-11-19T06:09:26;9.90;99.90
9658;DHT22;4867;48.112;11.622;2023-11-19T06:11:53;10.00;99.90
9658;DHT22;4867;48.112;11.622;2023-11-19T06:14:22;10.00;99.90
9658;DHT22;4867;48.112;11.622;2023-11-19T06:16:51;10.00;99.90
9658;DHT22;4867;48.112;11.622;2023-11-19T06:19:19;10.00;99.90
9658;DHT22;4867;48.112;11.622;2023-11-19T06:21:46;10.00;99.90
9658;DHT22;4867;48.112;11.622;2023-11-19T06:24:14;10.00;99.90
9658;DHT22;4867;48.112;11.622;2023-11-19T06:26:41;10.00;99.90
9658;DHT22;4867;48.112;11.622;2023-11-19T06:29:08;10.00;99.90
9658;DHT22;4867;48.112;11.622;2023-11-19T06:31:35;10.00;99.90
9658;DHT22;4867;48.112;11.622;2023-11-19T06:34:04;10.00;99.90
9658;DHT22;4867;48.112;11.622;2023-11-19T06:36:31;10.10;99.90
9658;DHT22;4867;48.112;11.622;2023-11-19T06:38:59;10.10;99.90
9658;DHT22;4867;48.112;11.622;2023-11-19T06:41:27;10.10;99.90
9658;DHT22;4867;48.112;11.622;2023-11-19T06:43:56;10.00;99.90
9658;DHT22;4867;48.112;11.622;2023-11-19T06:46:23;10.20;99.90
9658;DHT22;4867;48.112;11.622;2023-11-19T06:48:50;10.20;99.90
9658;DHT22;4867;48.112;11.622;2023-11-19T06:51:18;10.20;99.90
9658;DHT22;4867;48.112;11.622;2023-11-19T06:53:45;10.20;99.90
9658;DHT22;4867;48.112;11.622;2023-11-19T06:56:22;10.30;99.90
9658;DHT22;4867;48.112;11.622;2023-11-19T06:58:50;10.30;99.90
9658;DHT22;4867;48.112;11.622;2023-11-19T07:01:18;10.30;99.90
9658;DHT22;4867;48.112;11.622;2023-11-19T07:03:46;10.30;99.90
9658;DHT22;4867;48.112;11.622;2023-11-19T07:06:14;10.40;99.90
9658;DHT22;4867;48.112;11.622;2023-11-19T07:08:42;10.30;99.90
9658;DHT22;4867;48.112;11.622;2023-11-19T07:11:12;10.40;99.90
9658;DHT22;4867;48.112;11.622;2023-11-19T07:13:41;10.40;99.90
9658;DHT22;4867;48.112;11.622;2023-11-19T07:16:08;10.50;99.90
9658;DHT22;4867;48.112;11.622;2023-11-19T07:18:38;10.50;99.90
9658;DHT22;4867;48.112;11.622;2023-11-19T07:21:06;10.50;99.90
9658;DHT22;4867;48.112;11.622;2023-11-19T07:23:34;10.50;99.90
9658;DHT22;4867;48.112;11.622;2023-11-19T07:26:05;10.50;99.90
9658;DHT22;4867;48.112;11.622;2023-11-19T07:28:32;10.60;99.90
9658;DHT22;4867;48.112;11.622;2023-11-19T07:30:59;10.60;99.90
9658;DHT22;4867;48.112;11.622;2023-11-19T07:33:27;10.60;99.90
9658;DHT22;4867;48.112;11.622;2023-11-19T07:35:55;10.60;99.90
9658;DHT22;4867;48.112;11.622;2023-11-19T07:38:23;10.70;99.90
9658;DHT22;4867;48.112;11.622;2023-11-19T07:40:50;10.70;99.90
9658;DHT22;4867;48.112;11.622;2023-11-19T07:43:20;10.80;99.90
9658;DHT22;4867;48.112;11.622;2023-11-19T07:45:47;10.80;99.90
9658;DHT22;4867;48.112;11.622;2023-11-19T07:48:15;10.90;99.90
9658;DHT22;4867;48.112;11.622;2023-11-19T07:50:42;10.90;99.90
9658;DHT22;4867;48.112;11.622;2023-11-19T07:53:10;10.80;99.90
9658;DHT22;4867;48.112;11.622;2023-11-19T07:55:37;10.80;99.90
9658;DHT22;4867;48.112;11.622;2023-11-19T07:58:08;10.90;99.90
9658;DHT22;4867;48.112;11.622;2023-11-19T08:00:36;10.90;99.90
9658;DHT22;4867;48.112;11.622;2023-11-19T08:03:04;10.90;99.90
9658;DHT22;4867;48.112;11.622;2023-11-19T08:05:32;11.00;99.90
9658;DHT22;4867;48.112;11.622;2023-11-19T08:07:59;11.00;99.90
9658;DHT22;4867;48.112;11.622;2023-11-19T08:10:26;11.00;99.90
9658;DHT22;4867;48.112;11.622;2023-11-19T08:12:54;11.00;99.90
9658;DHT22;4867;48.112;11.622;2023-11-19T08:15:21;11.00;99.90
9658;DHT22;4867;48.112;11.622;2023-11-19T08:17:51;11.00;99.90
9658;DHT22;4867;48.112;11.622;2023-11-19T08:20:18;11.10;99.90
9658;DHT22;4867;48.112;11.622;2023-11-19T08:22:46;11.10;99.90
9658;DHT22;4867;48.112;11.622;2023-11-19T08:25:13;11.10;99.90
9658;DHT22;4867;48.112;11.622;2023-11-19T08:27:40;11.20;99.90
9658;DHT22;4867;48.112;11.622;2023-11-19T08:30:08;11.20;99.90
9658;DHT22;4867;48.112;11.622;2023-11-19T08:32:36;11.20;99.90
9658;DHT22;4867;48.112;11.622;2023-11-19T08:35:04;11.30;99.90
9658;DHT22;4867;48.112;11.622;2023-11-19T08:37:31;11.30;99.90
9658;DHT22;4867;48.112;11.622;2023-11-19T08:39:58;11.40;99.90
9658;DHT22;4867;48.112;11.622;2023-11-19T08:42:26;11.40;99.90
9658;DHT22;4867;48.112;11.622;2023-11-19T08:44:53;11.40;99.90
9658;DHT22;4867;48.112;11.622;2023-11-19T08:47:22;11.40;99.90
9658;DHT22;4867;48.112;11.622;2023-11-19T08:49:52;11.40;99.90
9658;DHT22;4867;48.112;11.622;2023-11-19T08:52:23;11.40;99.90
9658;DHT22;4867;48.112;11.622;2023-11-19T08:54:50;11.50;99.90
9658;DHT22;4867;48.112;11.622;2023-11-19T08:57:17;11.50;99.90
9658;DHT22;4867;48.112;11.622;2023-11-19T08:59:45;11.60;99.90
9658;DHT22;4867;48.112;11.622;2023-11-19T09:02:13;11.70;99.90
9658;DHT22;4867;48.112;11.622;2023-11-19T09:04:40;11.70;99.90
9658;DHT22;4867;48.112;11.622;2023-11-19T09:07:08;11.70;99.90
9658;DHT22;4867;48.112;11.622;2023-11-19T09:09:36;11.70;99.90
9658;DHT22;4867;48.112;11.622;2023-11-19T09:12:04;11.70;99.90
9658;DHT22;4867;48.112;11.622;2023-11-19T09:14:31;11.70;99.90
9658;DHT22;4867;48.112;11.622;2023-11-19T09:16:59;11.80;99.90
9658;DHT22;4867;48.112;11.622;2023-11-19T09:19:27;11.80;99.90
9658;DHT22;4867;48.112;11.622;2023-11-19T09:21:54;11.70;99.90
9658;DHT22;4867;48.112;11.622;2023-11-19T09:24:21;11.80;99.90
9658;DHT22;4867;48.112;11.622;2023-11-19T09:26:48;11.70;99.90
9658;DHT22;4867;48.112;11.622;2023-11-19T09:29:16;11.80;99.90
9658;DHT22;4867;48.112;11.622;2023-11-19T09:31:43;11.90;99.90
9658;DHT22;4867;48.112;11.622;2023-11-19T09:34:11;11.90;99.90
9658;DHT22;4867;48.112;11.622;2023-11-19T09:36:38;11.90;99.90
9658;DHT22;4867;48.112;11.622;2023-11-19T09:39:11;11.90;99.90
9658;DHT22;4867;48.112;11.622;2023-11-19T09:41:39;12.00;99.90
9658;DHT22;4867;48.112;11.622;2023-11-19T09:44:08;11.90;99.90
9658;DHT22;4867;48.112;11.622;2023-11-19T09:46:36;12.00;99.90
9658;DHT22;4867;48.112;11.622;2023-11-19T09:49:05;12.10;99.90
9658;DHT22;4867;48.112;11.622;2023-11-19T09:51:35;12.00;99.90
9658;DHT22;4867;48.112;11.622;2023-11-19T09:54:03;12.10;99.90
9658;DHT22;4867;48.112;11.622;2023-11-19T09:56:30;12.10;99.90
9658;DHT22;4867;48.112;11.622;2023-11-19T09:58:59;12.10;99.90
9658;DHT22;4867;48.112;11.622;2023-11-19T10:01:27;12.20;99.90
9658;DHT22;4867;48.112;11.622;2023-11-19T10:03:56;12.20;99.90
9658;DHT22;4867;48.112;11.622;2023-11-19T10:06:24;12.30;99.90
9658;DHT22;4867;48.112;11.622;2023-11-19T10:08:53;12.40;99.90
9658;DHT22;4867;48.112;11.622;2023-11-19T10:11:20;12.50;99.90
9658;DHT22;4867;48.112;11.622;2023-11-19T10:13:48;12.60;99.90
9658;DHT22;4867;48.112;11.622;2023-11-19T10:16:17;12.70;99.90
9658;DHT22;4867;48.112;11.622;2023-11-19T10:21:13;12.90;99.90
9658;DHT22;4867;48.112;11.622;2023-11-19T10:23:57;12.90;99.90
9658;DHT22;4867;48.112;11.622;2023-11-19T10:26:27;12.90;99.90
9658;DHT22;4867;48.112;11.622;2023-11-19T10:28:55;12.90;99.90
9658;DHT22;4867;48.112;11.622;2023-11-19T10:31:23;13.00;99.90
9658;DHT22;4867;48.112;11.622;2023-11-19T10:33:54;13.10;99.90
9658;DHT22;4867;48.112;11.622;2023-11-19T10:36:22;13.10;99.90
9658;DHT22;4867;48.112;11.622;2023-11-19T10:38:55;13.10;99.90
9658;DHT22;4867;48.112;11.622;2023-11-19T10:41:30;13.20;99.90
9658;DHT22;4867;48.112;11.622;2023-11-19T10:44:00;13.30;99.90
9658;DHT22;4867;48.112;11.622;2023-11-19T10:49:07;13.50;99.90
9658;DHT22;4867;48.112;11.622;2023-11-19T10:51:35;13.80;99.90
9658;DHT22;4867;48.112;11.622;2023-11-19T10:54:04;13.90;99.90
9658;DHT22;4867;48.112;11.622;2023-11-19T10:56:33;14.00;99.90
9658;DHT22;4867;48.112;11.622;2023-11-19T10:59:01;14.00;99.90
9658;DHT22;4867;48.112;11.622;2023-11-19T11:01:45;14.00;99.90
9658;DHT22;4867;48.112;11.622;2023-11-19T11:04:14;14.10;99.90
9658;DHT22;4867;48.112;11.622;2023-11-19T11:06:44;14.00;99.90
9658;DHT22;4867;48.112;11.622;2023-11-19T11:09:13;14.00;99.90
9658;DHT22;4867;48.112;11.622;2023-11-19T11:11:46;13.90;99.90
9658;DHT22;4867;48.112;11.622;2023-11-19T11:14:14;13.80;99.90
9658;DHT22;4867;48.112;11.622;2023-11-19T11:16:43;13.80;99.90
9658;DHT22;4867;48.112;11.622;2023-11-19T11:19:11;13.80;99.90
9658;DHT22;4867;48.112;11.622;2023-11-19T11:21:43;13.80;99.90
9658;DHT22;4867;48.112;11.622;2023-11-19T11:24:53;13.90;99.90
9658;DHT22;4867;48.112;11.622;2023-11-19T11:27:54;13.80;99.90
9658;DHT22;4867;48.112;11.622;2023-11-19T11:36:20;13.90;99.90
9658;DHT22;4867;48.112;11.622;2023-11-19T11:38:48;13.80;99.90
9658;DHT22;4867;48.112;11.622;2023-11-19T11:41:20;13.90;99.90
9658;DHT22;4867;48.112;11.622;2023-11-19T11:43:54;13.90;99.90
9658;DHT22;4867;48.112;11.622;2023-11-19T11:49:08;14.10;99.90
9658;DHT22;4867;48.112;11.622;2023-11-19T11:57:21;14.20;99.90
9658;DHT22;4867;48.112;11.622;2023-11-19T11:59:50;14.30;99.90
9658;DHT22;4867;48.112;11.622;2023-11-19T12:02:21;14.40;99.90
9658;DHT22;4867;48.112;11.622;2023-11-19T12:04:50;14.60;99.90
9658;DHT22;4867;48.112;11.622;2023-11-19T12:07:21;14.50;99.90
9658;DHT22;4867;48.112;11.622;2023-11-19T12:10:05;14.60;99.90
9658;DHT22;4867;48.112;11.622;2023-11-19T12:12:34;14.70;99.90
9658;DHT22;4867;48.112;11.622;2023-11-19T12:20:06;14.60;99.90
9658;DHT22;4867;48.112;11.622;2023-11-19T12:22:41;14.60;99.90
9658;DHT22;4867;48.112;11.622;2023-11-19T12:25:10;14.70;99.90
9658;DHT22;4867;48.112;11.622;2023-11-19T12:27:46;14.70;99.90
9658;DHT22;4867;48.112;11.622;2023-11-19T12:30:21;14.70;99.90
9658;DHT22;4867;48.112;11.622;2023-11-19T12:32:48;14.60;99.90
9658;DHT22;4867;48.112;11.622;2023-11-19T12:35:16;14.50;99.90
9658;DHT22;4867;48.112;11.622;2023-11-19T12:37:45;14.50;99.90
9658;DHT22;4867;48.112;11.622;2023-11-19T12:40:23;14.40;99.90
9658;DHT22;4867;48.112;11.622;2023-11-19T12:42:54;14.30;99.90
9658;DHT22;4867;48.112;11.622;2023-11-19T12:45:23;14.20;99.90
9658;DHT22;4867;48.112;11.622;2023-11-19T12:48:13;14.30;99.90
9658;DHT22;4867;48.112;11.622;2023-11-19T12:50:54;14.30;99.90
9658;DHT22;4867;48.112;11.622;2023-11-19T12:53:23;14.30;99.90
9658;DHT22;4867;48.112;11.622;2023-11-19T12:55:51;14.40;99.90
9658;DHT22;4867;48.112;11.622;2023-11-19T12:58:35;14.50;99.90
9658;DHT22;4867;48.112;11.622;2023-11-19T13:01:04;14.60;99.90
9658;DHT22;4867;48.112;11.622;2023-11-19T13:03:38;14.60;99.90
9658;DHT22;4867;48.112;11.622;2023-11-19T13:06:08;14.60;99.90
9658;DHT22;4867;48.112;11.622;2023-11-19T13:11:07;14.70;99.90
9658;DHT22;4867;48.112;11.622;2023-11-19T13:14:00;14.70;99.90
9658;DHT22;4867;48.112;11.622;2023-11-19T13:16:28;14.70;99.90
9658;DHT22;4867;48.112;11.622;2023-11-19T13:18:56;14.60;99.90
9658;DHT22;4867;48.112;11.622;2023-11-19T13:21:24;14.60;99.90
9658;DHT22;4867;48.112;11.622;2023-11-19T13:23:52;14.60;99.90
9658;DHT22;4867;48.112;11.622;2023-11-19T13:26:19;14.50;99.90
9658;DHT22;4867;48.112;11.622;2023-11-19T13:28:46;14.50;99.90
9658;DHT22;4867;48.112;11.622;2023-11-19T13:31:13;14.40;99.90
9658;DHT22;4867;48.112;11.622;2023-11-19T13:33:42;14.30;99.90
9658;DHT22;4867;48.112;11.622;2023-11-19T13:36:09;14.40;99.90
9658;DHT22;4867;48.112;11.622;2023-11-19T13:38:41;14.30;99.90
9658;DHT22;4867;48.112;11.622;2023-11-19T13:41:09;14.30;99.90
9658;DHT22;4867;48.112;11.622;2023-11-19T13:43:37;14.30;99.90
9658;DHT22;4867;48.112;11.622;2023-11-19T13:46:05;14.20;99.90
9658;DHT22;4867;48.112;11.622;2023-11-19T13:48:32;14.20;99.90
9658;DHT22;4867;48.112;11.622;2023-11-19T13:50:59;14.20;99.90
9658;DHT22;4867;48.112;11.622;2023-11-19T13:53:27;14.10;99.90
9658;DHT22;4867;48.112;11.622;2023-11-19T13:55:54;14.10;99.90
9658;DHT22;4867;48.112;11.622;2023-11-19T13:58:21;14.00;99.90
9658;DHT22;4867;48.112;11.622;2023-11-19T14:00:48;14.00;99.90
9658;DHT22;4867;48.112;11.622;2023-11-19T14:03:16;13.80;99.90
9658;DHT22;4867;48.112;11.622;2023-11-19T14:05:43;13.90;99.90
9658;DHT22;4867;48.112;11.622;2023-11-19T14:08:10;13.80;99.90
9658;DHT22;4867;48.112;11.622;2023-11-19T14:10:52;13.80;99.90
9658;DHT22;4867;48.112;11.622;2023-11-19T14:13:23;13.80;99.90
9658;DHT22;4867;48.112;11.622;2023-11-19T14:15:51;13.80;99.90
9658;DHT22;4867;48.112;11.622;2023-11-19T14:18:18;13.80;99.90
9658;DHT22;4867;48.112;11.622;2023-11-19T14:20:45;13.80;99.90
9658;DHT22;4867;48.112;11.622;2023-11-19T14:23:13;13.90;99.90
9658;DHT22;4867;48.112;11.622;2023-11-19T14:25:40;13.80;99.90
9658;DHT22;4867;48.112;11.622;2023-11-19T14:28:07;13.90;99.90
9658;DHT22;4867;48.112;11.622;2023-11-19T14:30:35;13.80;99.90
9658;DHT22;4867;48.112;11.622;2023-11-19T14:33:02;13.80;99.90
9658;DHT22;4867;48.112;11.622;2023-11-19T14:35:31;13.80;99.90
9658;DHT22;4867;48.112;11.622;2023-11-19T14:38:00;13.80;99.90
9658;DHT22;4867;48.112;11.622;2023-11-19T14:40:27;13.70;99.90
9658;DHT22;4867;48.112;11.622;2023-11-19T14:42:57;13.60;99.90
9658;DHT22;4867;48.112;11.622;2023-11-19T14:45:24;13.60;99.90
9658;DHT22;4867;48.112;11.622;2023-11-19T14:47:52;13.70;99.90
9658;DHT22;4867;48.112;11.622;2023-11-19T14:50:19;13.70;99.90
9658;DHT22;4867;48.112;11.622;2023-11-19T14:52:47;13.70;99.90
9658;DHT22;4867;48.112;11.622;2023-11-19T14:55:14;13.70;99.90
9658;DHT22;4867;48.112;11.622;2023-11-19T14:57:41;13.70;99.90
9658;DHT22;4867;48.112;11.622;2023-11-19T15:00:24;13.60;99.90
9658;DHT22;4867;48.112;11.622;2023-11-19T15:02:52;13.60;99.90
9658;DHT22;4867;48.112;11.622;2023-11-19T15:05:20;13.50;99.90
9658;DHT22;4867;48.112;11.622;2023-11-19T15:07:48;13.40;99.90
9658;DHT22;4867;48.112;11.622;2023-11-19T15:10:15;13.30;99.90
9658;DHT22;4867;48.112;11.622;2023-11-19T15:12:43;13.20;99.90
9658;DHT22;4867;48.112;11.622;2023-11-19T15:15:10;13.20;99.90
9658;DHT22;4867;48.112;11.622;2023-11-19T15:17:40;13.10;99.90
9658;DHT22;4867;48.112;11.622;2023-11-19T15:20:08;13.00;99.90
9658;DHT22;4867;48.112;11.622;2023-11-19T15:22:35;12.90;99.90
9658;DHT22;4867;48.112;11.622;2023-11-19T15:25:03;12.80;99.90
9658;DHT22;4867;48.112;11.622;2023-11-19T15:27:30;12.80;99.90
9658;DHT22;4867;48.112;11.622;2023-11-19T15:29:57;12.70;99.90
9658;DHT22;4867;48.112;11.622;2023-11-19T15:32:25;12.60;99.90
9658;DHT22;4867;48.112;11.622;2023-11-19T15:34:53;12.60;99.90
9658;DHT22;4867;48.112;11.622;2023-11-19T15:37:20;12.50;99.90
9658;DHT22;4867;48.112;11.622;2023-11-19T15:39:47;12.50;99.90
9658;DHT22;4867;48.112;11.622;2023-11-19T15:42:15;12.40;99.90
9658;DHT22;4867;48.112;11.622;2023-11-19T15:44:43;12.40;99.90
9658;DHT22;4867;48.112;11.622;2023-11-19T15:47:10;12.40;99.90
9658;DHT22;4867;48.112;11.622;2023-11-19T15:49:40;12.30;99.90
9658;DHT22;4867;48.112;11.622;2023-11-19T15:52:07;12.20;99.90
9658;DHT22;4867;48.112;11.622;2023-11-19T15:54:35;12.30;99.90
9658;DHT22;4867;48.112;11.622;2023-11-19T15:57:04;12.10;99.90
9658;DHT22;4867;48.112;11.622;2023-11-19T15:59:31;12.10;99.90
9658;DHT22;4867;48.112;11.622;2023-11-19T16:01:59;12.10;99.90
9658;DHT22;4867;48.112;11.622;2023-11-19T16:04:27;12.00;99.90
9658;DHT22;4867;48.112;11.622;2023-11-19T16:06:54;12.00;99.90
9658;DHT22;4867;48.112;11.622;2023-11-19T16:09:21;12.10;99.90
9658;DHT22;4867;48.112;11.622;2023-11-19T16:11:49;12.10;99.90
9658;DHT22;4867;48.112;11.622;2023-11-19T16:14:23;12.10;99.90
9658;DHT22;4867;48.112;11.622;2023-11-19T16:16:51;12.10;99.90
9658;DHT22;4867;48.112;11.622;2023-11-19T16:19:20;12.20;99.90
9658;DHT22;4867;48.112;11.622;2023-11-19T16:21:47;12.10;99.90
9658;DHT22;4867;48.112;11.622;2023-11-19T16:24:15;12.10;99.90
9658;DHT22;4867;48.112;11.622;2023-11-19T16:26:43;12.10;99.90
9658;DHT22;4867;48.112;11.622;2023-11-19T16:29:10;12.10;99.90
9658;DHT22;4867;48.112;11.622;2023-11-19T16:31:38;12.00;99.90